Time;durP1;ratioP1;P1;durP2;ratioP2;P2;SDS_P1;SDS_P2;PMS_P1;PMS_P2;Temp;Humidity;BMP_temperature;BMP_pressure;BME280_temperature;BME280_humidity;BME280_pressure;Samples;Min_cycle;Max_cycle;Signal;HPM_P1;HPM_P2
2021/08/04 00:00:24;;;;;;;;;7.00;6.00;;;;;24.65;43.96;100964.81;5036289;28;51290;-57
2021/08/04 00:02:49;;;;;;;;;7.00;7.00;;;;;24.64;44.01;100972.28;5036221;28;51019;-54
2021/08/04 00:05:15;;;;;;;;;8.50;6.50;;;;;24.64;43.83;100975.06;5036695;28;51232;-54
2021/08/04 00:07:40;;;;;;;;;7.00;7.00;;;;;24.63;43.96;100976.13;5036101;28;51047;-56
2021/08/04 00:10:06;;;;;;;;;7.00;7.00;;;;;24.64;43.94;100985.28;5036216;28;51173;-54
2021/08/04 00:12:31;;;;;;;;;7.00;7.00;;;;;24.63;43.86;100975.31;5036052;28;51072;-56
2021/08/04 00:14:57;;;;;;;;;8.00;6.00;;;;;24.62;43.57;100974.47;5036575;28;51006;-54
2021/08/04 00:17:22;;;;;;;;;7.25;7.00;;;;;24.63;43.57;100972.53;5035950;28;51967;-54
2021/08/04 00:19:47;;;;;;;;;6.75;4.50;;;;;24.63;44.15;100978.91;5035633;28;51165;-56
2021/08/04 00:22:13;;;;;;;;;8.75;6.25;;;;;24.63;43.87;100973.38;5036157;28;51349;-55
2021/08/04 00:24:38;;;;;;;;;8.75;6.75;;;;;24.63;43.97;100970.59;5035783;28;51081;-54
2021/08/04 00:27:04;;;;;;;;;9.00;7.00;;;;;24.62;43.91;100971.69;5035653;28;51052;-54
2021/08/04 00:29:29;;;;;;;;;6.00;6.00;;;;;24.62;43.85;100981.94;5035772;28;51182;-54
2021/08/04 00:31:54;;;;;;;;;4.25;4.25;;;;;24.62;43.69;100973.63;5035789;28;51039;-54
2021/08/04 00:34:20;;;;;;;;;7.00;5.75;;;;;24.61;43.88;100972.78;5035916;28;50955;-55
2021/08/04 00:36:45;;;;;;;;;7.00;5.50;;;;;24.62;44.12;100974.47;5035149;28;58360;-56
2021/08/04 00:39:10;;;;;;;;;8.50;7.75;;;;;24.62;43.85;100971.69;5035587;28;50971;-55
2021/08/04 00:41:38;;;;;;;;;6.50;6.25;;;;;24.62;43.81;100968.09;5036021;28;51191;-54
2021/08/04 00:44:03;;;;;;;;;6.75;6.75;;;;;24.61;43.70;100971.94;5035711;28;50984;-53
2021/08/04 00:46:29;;;;;;;;;7.75;6.00;;;;;24.61;43.92;100967.25;5035325;28;51108;-55
2021/08/04 00:48:54;;;;;;;;;9.00;7.75;;;;;24.62;43.87;100968.09;5035474;28;51150;-55
2021/08/04 00:51:20;;;;;;;;;8.75;7.25;;;;;24.62;43.95;100959.78;5035770;28;51454;-56
2021/08/04 00:53:45;;;;;;;;;7.25;6.25;;;;;24.62;43.79;100962.53;5035804;28;51194;-56
2021/08/04 00:56:10;;;;;;;;;4.50;4.00;;;;;24.61;43.88;100958.09;5035421;28;51891;-54
2021/08/04 00:58:42;;;;;;;;;5.25;5.25;;;;;24.60;43.94;100957.25;5035225;28;50990;-55
2021/08/04 01:01:18;;;;;;;;;5.50;4.25;;;;;24.61;43.86;100950.63;5035240;28;51192;-54
2021/08/04 01:03:46;;;;;;;;;8.25;7.00;;;;;24.60;44.10;100948.09;5035895;28;51414;-56
2021/08/04 01:06:18;;;;;;;;;6.00;6.00;;;;;24.60;43.75;100946.19;5035176;28;51929;-55
2021/08/04 01:08:53;;;;;;;;;8.75;6.75;;;;;24.60;44.08;100943.41;5035385;28;51408;-55
2021/08/04 01:11:21;;;;;;;;;8.50;7.50;;;;;24.61;43.72;100944.25;5035627;28;51373;-56
2021/08/04 01:13:49;;;;;;;;;6.00;5.50;;;;;24.60;43.86;100954.47;5035275;28;51146;-54
2021/08/04 01:16:21;;;;;;;;;9.00;5.75;;;;;24.60;43.99;100954.47;5035075;28;52361;-57
2021/08/04 01:19:05;;;;;;;;;7.00;5.50;;;;;24.59;43.65;100944.47;5034848;28;51134;-57
2021/08/04 01:22:17;;;;;;;;;10.00;8.25;;;;;24.59;43.96;100940.84;5035412;28;51109;-56
2021/08/04 01:24:55;;;;;;;;;8.75;7.25;;;;;24.59;43.87;100943.63;4973543;28;51123;-56
2021/08/04 01:27:23;;;;;;;;;7.00;7.00;;;;;24.59;44.07;100946.41;5031689;28;51909;-55
2021/08/04 01:29:49;;;;;;;;;7.75;7.75;;;;;24.58;43.98;100939.19;5035072;28;51071;-55
2021/08/04 01:32:17;;;;;;;;;6.50;6.00;;;;;24.57;43.81;100943.88;5035248;28;51212;-54
2021/08/04 01:34:43;;;;;;;;;6.00;6.00;;;;;24.59;43.93;100947.25;5035166;28;51275;-54
2021/08/04 01:37:10;;;;;;;;;7.75;7.50;;;;;24.58;43.79;100941.94;5034936;28;51479;-54
2021/08/04 01:39:36;;;;;;;;;6.50;6.00;;;;;24.58;43.89;100939.19;5034896;28;51248;-55
2021/08/04 01:42:04;;;;;;;;;3.75;3.75;;;;;24.58;43.95;100933.66;5035306;28;50955;-55
2021/08/04 01:44:32;;;;;;;;;8.50;7.75;;;;;24.57;44.28;100932.81;5035034;28;51114;-53
2021/08/04 01:46:59;;;;;;;;;8.50;6.50;;;;;24.58;44.04;100928.94;5034854;28;51781;-57
2021/08/04 01:49:27;;;;;;;;;6.00;5.00;;;;;24.58;44.16;100940.03;5035058;28;50896;-57
2021/08/04 01:51:53;;;;;;;;;8.50;5.00;;;;;24.57;44.25;100929.19;5038522;28;50980;-55
2021/08/04 01:54:18;;;;;;;;;7.75;7.75;;;;;24.57;44.21;100938.34;5038666;28;51301;-55
2021/08/04 01:56:45;;;;;;;;;5.75;4.75;;;;;24.57;44.10;100923.66;5038073;28;51252;-55
2021/08/04 01:59:11;;;;;;;;;7.00;5.00;;;;;24.57;44.27;100924.50;5038021;28;51277;-55
2021/08/04 02:01:38;;;;;;;;;6.25;6.00;;;;;24.57;43.90;100918.13;5038266;28;51189;-55
2021/08/04 02:04:04;;;;;;;;;7.50;5.00;;;;;24.56;43.99;100920.03;5038567;28;51339;-55
2021/08/04 02:06:38;;;;;;;;;7.00;6.25;;;;;24.56;44.19;100917.28;5037624;28;52872;-55
2021/08/04 02:09:32;;;;;;;;;6.00;6.00;;;;;24.56;44.19;100931.13;5038143;28;51042;-55
2021/08/04 02:12:03;;;;;;;;;7.75;5.50;;;;;24.55;44.22;100926.69;5029426;28;51077;-55
2021/08/04 02:14:37;;;;;;;;;5.75;5.75;;;;;24.56;44.01;100920.03;5037900;28;51244;-54
2021/08/04 02:17:18;;;;;;;;;6.50;6.50;;;;;24.55;43.98;100912.00;5037955;28;51378;-55
2021/08/04 02:20:03;;;;;;;;;8.25;8.00;;;;;24.55;43.96;100918.38;5036096;28;51183;-55
2021/08/04 02:22:49;;;;;;;;;5.00;4.50;;;;;24.55;44.03;100914.75;5038079;28;51030;-55
2021/08/04 02:25:33;;;;;;;;;6.50;6.50;;;;;24.55;44.11;100912.00;5029917;28;51123;-55
2021/08/04 02:28:00;;;;;;;;;6.75;6.75;;;;;24.54;43.96;100913.91;5035271;28;51067;-54
2021/08/04 02:30:28;;;;;;;;;9.25;7.00;;;;;24.54;44.13;100915.84;5037701;28;51089;-54
2021/08/04 02:32:55;;;;;;;;;7.00;6.00;;;;;24.53;44.17;100912.25;5037541;28;51207;-56
2021/08/04 02:35:22;;;;;;;;;8.75;7.50;;;;;24.52;43.86;100907.78;5038155;28;50926;-54
2021/08/04 02:37:48;;;;;;;;;8.00;6.75;;;;;24.54;43.97;100902.00;5037012;28;51201;-54
2021/08/04 02:40:15;;;;;;;;;8.00;6.00;;;;;24.53;43.88;100901.16;5037650;28;51433;-54
2021/08/04 02:42:42;;;;;;;;;7.00;7.00;;;;;24.53;44.06;100897.56;5037298;28;51200;-56
2021/08/04 02:45:08;;;;;;;;;11.50;8.00;;;;;24.53;43.81;100892.84;5037614;28;51202;-55
2021/08/04 02:47:35;;;;;;;;;6.00;6.00;;;;;24.53;44.11;100897.56;5037314;28;51769;-54
2021/08/04 02:50:02;;;;;;;;;8.75;5.00;;;;;24.52;44.05;100891.19;5037089;28;50986;-56
2021/08/04 02:52:28;;;;;;;;;7.50;6.75;;;;;24.50;43.94;100898.91;5037314;28;51067;-54
2021/08/04 02:54:54;;;;;;;;;5.75;4.25;;;;;24.51;44.15;100886.75;5037694;28;51139;-55
2021/08/04 02:57:19;;;;;;;;;7.75;7.00;;;;;24.52;43.72;100895.88;5037034;28;51981;-55
2021/08/04 02:59:44;;;;;;;;;8.75;7.75;;;;;24.52;44.28;100890.34;5037189;28;51265;-56
2021/08/04 03:02:10;;;;;;;;;8.00;6.25;;;;;24.51;43.80;100892.28;5036188;28;50943;-56
2021/08/04 03:04:35;;;;;;;;;7.75;7.00;;;;;24.51;44.14;100896.97;5037308;28;51061;-56
2021/08/04 03:07:00;;;;;;;;;4.00;4.00;;;;;24.50;43.82;100890.59;5036922;28;51711;-56
2021/08/04 03:09:26;;;;;;;;;9.50;6.75;;;;;24.52;43.91;100893.94;5037115;28;50982;-56
2021/08/04 03:11:51;;;;;;;;;4.00;4.00;;;;;24.51;44.06;100888.66;5037237;28;51103;-55
2021/08/04 03:14:16;;;;;;;;;6.75;5.75;;;;;24.51;43.95;100895.03;5036981;28;50994;-55
2021/08/04 03:16:42;;;;;;;;;6.25;6.00;;;;;24.50;44.05;100889.75;5037068;28;51984;-56
2021/08/04 03:19:07;;;;;;;;;8.00;6.50;;;;;24.50;43.97;100898.91;5036440;28;51181;-57
2021/08/04 03:21:33;;;;;;;;;8.00;7.75;;;;;24.50;43.78;100893.38;5037401;28;51174;-56
2021/08/04 03:23:58;;;;;;;;;10.50;6.00;;;;;24.50;44.02;100901.66;5037085;28;51075;-55
2021/08/04 03:26:23;;;;;;;;;7.25;5.75;;;;;24.49;44.26;100894.47;5036388;28;51779;-56
2021/08/04 03:28:49;;;;;;;;;6.75;5.00;;;;;24.50;44.00;100892.53;5036704;28;51093;-55
2021/08/04 03:31:14;;;;;;;;;5.75;5.75;;;;;24.48;43.80;100890.81;5036878;28;51166;-54
2021/08/04 03:33:40;;;;;;;;;6.50;4.75;;;;;24.48;44.13;100885.28;5036962;28;51139;-56
2021/08/04 03:36:05;;;;;;;;;6.50;6.50;;;;;24.49;43.89;100877.84;5036316;28;52168;-56
2021/08/04 03:38:31;;;;;;;;;7.00;6.00;;;;;24.49;44.03;100872.31;5037051;28;51348;-55
2021/08/04 03:40:56;;;;;;;;;5.25;5.25;;;;;24.48;44.02;100865.91;5036913;28;50912;-56
2021/08/04 03:43:22;;;;;;;;;5.75;5.25;;;;;24.48;43.91;100865.06;5036797;28;50945;-56
2021/08/04 03:45:47;;;;;;;;;5.50;5.25;;;;;24.47;44.17;100866.97;5036232;28;51089;-56
2021/08/04 03:48:12;;;;;;;;;7.50;6.75;;;;;24.47;43.66;100877.22;5036445;28;51132;-56
2021/08/04 03:50:38;;;;;;;;;4.50;4.50;;;;;24.48;43.96;100870.59;5036683;28;51085;-56
2021/08/04 03:53:03;;;;;;;;;7.75;5.25;;;;;24.48;44.15;100878.91;5036690;28;51024;-56
2021/08/04 03:55:29;;;;;;;;;11.25;7.50;;;;;24.47;44.03;100888.31;5036271;28;50942;-53
2021/08/04 03:57:54;;;;;;;;;6.75;6.75;;;;;24.46;43.95;100887.47;5036283;28;51167;-53
2021/08/04 04:00:19;;;;;;;;;7.75;5.50;;;;;24.46;44.03;100884.69;5036390;28;51185;-56
2021/08/04 04:02:45;;;;;;;;;5.25;5.00;;;;;24.47;44.14;100896.59;5036522;28;51259;-56
2021/08/04 04:05:10;;;;;;;;;3.00;3.00;;;;;24.46;43.81;100894.94;5036111;28;51056;-56
2021/08/04 04:07:36;;;;;;;;;6.25;6.00;;;;;24.46;44.03;100903.25;5036521;28;51298;-57
2021/08/04 04:10:02;;;;;;;;;5.00;5.00;;;;;24.45;43.95;100898.78;5036285;28;51233;-54
2021/08/04 04:12:28;;;;;;;;;7.25;5.75;;;;;24.43;44.06;100893.50;5035969;28;51034;-56
2021/08/04 04:14:53;;;;;;;;;3.50;3.00;;;;;24.45;43.98;100894.09;5036124;28;51038;-56
2021/08/04 04:17:18;;;;;;;;;4.00;4.00;;;;;24.45;43.97;100901.56;5036039;28;51150;-55
2021/08/04 04:19:44;;;;;;;;;4.00;4.00;;;;;24.45;44.13;100899.63;5035670;28;51048;-54
2021/08/04 04:22:09;;;;;;;;;6.00;4.75;;;;;24.44;44.20;100891.56;5036196;28;51335;-55
2021/08/04 04:24:34;;;;;;;;;8.00;7.00;;;;;24.45;44.06;100890.47;5035791;28;51908;-56
2021/08/04 04:27:00;;;;;;;;;6.25;5.00;;;;;24.43;44.02;100887.97;5035937;28;51231;-55
2021/08/04 04:29:25;;;;;;;;;7.00;4.50;;;;;24.44;44.24;100888.81;5035805;28;51083;-55
2021/08/04 04:31:50;;;;;;;;;4.25;3.75;;;;;24.44;43.81;100880.50;5036305;28;51265;-56
2021/08/04 04:34:16;;;;;;;;;4.00;4.00;;;;;24.43;43.83;100885.19;5036072;28;51736;-56
2021/08/04 04:36:41;;;;;;;;;5.75;5.75;;;;;24.43;44.21;100884.34;5035856;28;51089;-56
2021/08/04 04:39:06;;;;;;;;;4.25;4.25;;;;;24.42;43.95;100877.16;5035702;28;51050;-56
2021/08/04 04:41:32;;;;;;;;;5.75;5.50;;;;;24.42;44.02;100866.91;5036167;28;51304;-56
2021/08/04 04:43:57;;;;;;;;;8.50;6.00;;;;;24.43;43.99;100870.50;5035493;28;51493;-56
2021/08/04 04:46:23;;;;;;;;;5.25;4.50;;;;;24.42;43.99;100871.59;5035672;28;51021;-53
2021/08/04 04:48:48;;;;;;;;;4.50;4.50;;;;;24.41;43.84;100873.53;5035636;28;51081;-56
2021/08/04 04:51:13;;;;;;;;;4.25;4.00;;;;;24.42;44.12;100871.59;5036020;28;51258;-55
2021/08/04 04:53:39;;;;;;;;;4.00;4.00;;;;;24.42;43.84;100874.38;5035454;28;51993;-56
2021/08/04 04:56:04;;;;;;;;;3.75;3.75;;;;;24.41;43.90;100876.31;5035610;28;51007;-54
2021/08/04 04:58:29;;;;;;;;;3.50;3.50;;;;;24.41;43.98;100884.63;5035614;28;51176;-57
2021/08/04 05:00:55;;;;;;;;;5.00;5.00;;;;;24.41;43.91;100881.00;5035587;28;50904;-56
2021/08/04 05:03:20;;;;;;;;;4.00;3.50;;;;;24.41;44.04;100886.53;5033866;28;51286;-56
2021/08/04 05:05:46;;;;;;;;;6.00;5.50;;;;;24.41;44.06;100883.78;5035247;28;51166;-57
2021/08/04 05:08:11;;;;;;;;;3.00;3.00;;;;;24.40;44.02;100884.88;5035640;28;51185;-56
2021/08/04 05:10:36;;;;;;;;;5.25;5.25;;;;;24.41;43.79;100889.31;5035834;28;51114;-57
2021/08/04 05:13:02;;;;;;;;;6.25;4.00;;;;;24.41;44.15;100886.53;5034818;28;51138;-55
2021/08/04 05:15:27;;;;;;;;;5.75;5.00;;;;;24.41;43.97;100892.06;5035528;28;51089;-55
2021/08/04 05:17:52;;;;;;;;;4.00;4.00;;;;;24.40;44.02;100898.72;5035092;28;51199;-56
2021/08/04 05:20:18;;;;;;;;;2.00;2.00;;;;;24.40;44.22;100895.94;5035306;28;51198;-55
2021/08/04 05:22:43;;;;;;;;;4.00;4.00;;;;;24.39;43.98;100899.78;5035069;28;51759;-55
2021/08/04 05:25:09;;;;;;;;;4.50;4.50;;;;;24.39;44.29;100903.41;5036903;28;51085;-57
2021/08/04 05:27:35;;;;;;;;;4.75;4.75;;;;;24.38;43.87;100898.94;5038372;28;51028;-56
2021/08/04 05:30:00;;;;;;;;;4.00;3.75;;;;;24.39;43.94;100899.78;5038706;28;51079;-55
2021/08/04 05:32:25;;;;;;;;;7.75;3.50;;;;;24.39;43.93;100902.56;5037852;28;60664;-56
2021/08/04 05:34:51;;;;;;;;;3.00;3.00;;;;;24.38;44.09;100895.31;5038704;28;50906;-55
2021/08/04 05:37:16;;;;;;;;;4.75;4.00;;;;;24.39;43.86;100899.78;5038361;28;50877;-56
2021/08/04 05:39:41;;;;;;;;;6.00;4.00;;;;;24.38;43.95;100898.94;5038843;28;51393;-55
2021/08/04 05:42:07;;;;;;;;;5.25;4.00;;;;;24.38;43.90;100898.09;5038122;28;50996;-55
2021/08/04 05:44:32;;;;;;;;;3.00;3.00;;;;;24.38;43.92;100903.63;5038339;28;51099;-54
2021/08/04 05:46:57;;;;;;;;;3.50;3.50;;;;;24.38;43.87;100893.38;5038495;28;50966;-56
2021/08/04 05:49:23;;;;;;;;;4.25;4.25;;;;;24.38;43.67;100890.63;5038156;28;51205;-56
2021/08/04 05:51:51;;;;;;;;;4.50;4.25;;;;;24.37;43.83;100888.94;5038013;28;56460;-55
2021/08/04 05:54:18;;;;;;;;;3.50;3.50;;;;;24.37;44.10;100897.25;5038391;28;51342;-55
2021/08/04 05:56:43;;;;;;;;;3.25;3.25;;;;;24.38;44.00;100898.09;5038313;28;51126;-56
2021/08/04 05:59:08;;;;;;;;;3.75;3.25;;;;;24.38;43.85;100909.16;5038111;28;50983;-56
2021/08/04 06:01:33;;;;;;;;;3.00;3.00;;;;;24.38;44.00;100903.63;5037974;28;51019;-56
2021/08/04 06:03:59;;;;;;;;;3.50;3.50;;;;;24.38;44.10;100907.22;5037947;28;51037;-56
2021/08/04 06:06:24;;;;;;;;;2.00;2.00;;;;;24.37;44.01;100907.47;5038124;28;50964;-56
2021/08/04 06:08:49;;;;;;;;;3.00;3.00;;;;;24.38;43.92;100911.94;5038374;28;51033;-56
2021/08/04 06:11:15;;;;;;;;;5.00;5.00;;;;;24.38;43.48;100912.78;5037781;28;51843;-54
2021/08/04 06:13:40;;;;;;;;;2.00;2.00;;;;;24.38;43.69;100906.41;5037671;28;51094;-55
2021/08/04 06:16:05;;;;;;;;;4.25;4.25;;;;;24.40;43.82;100910.63;5037920;28;50955;-54
2021/08/04 06:18:31;;;;;;;;;3.50;3.50;;;;;24.40;43.93;100910.63;5036513;28;51287;-54
2021/08/04 06:20:56;;;;;;;;;6.50;3.75;;;;;24.38;43.68;100910.00;5037626;28;51826;-56
2021/08/04 06:23:21;;;;;;;;;3.00;3.00;;;;;24.40;43.99;100907.00;5037504;28;51116;-55
2021/08/04 06:25:46;;;;;;;;;5.00;4.00;;;;;24.40;43.76;100907.84;5037643;28;51061;-55
2021/08/04 06:28:12;;;;;;;;;4.25;4.25;;;;;24.40;43.80;100904.25;5037599;28;50907;-55
2021/08/04 06:30:37;;;;;;;;;4.75;4.50;;;;;24.39;44.00;100900.63;5037629;28;51751;-55
2021/08/04 06:33:03;;;;;;;;;3.75;3.25;;;;;24.38;43.92;100893.38;5037440;28;50875;-55
2021/08/04 06:35:28;;;;;;;;;2.50;2.50;;;;;24.39;43.71;100889.56;5037530;28;50998;-55
2021/08/04 06:37:53;;;;;;;;;2.50;2.00;;;;;24.40;43.96;100891.25;5037630;28;51153;-55
2021/08/04 06:40:18;;;;;;;;;3.75;2.25;;;;;24.39;43.83;100897.03;5037182;28;54885;-56
2021/08/04 06:42:44;;;;;;;;;4.00;4.00;;;;;24.39;43.68;100900.63;5037237;28;51078;-56
2021/08/04 06:45:10;;;;;;;;;4.00;4.00;;;;;24.40;44.06;100901.47;5037499;28;50979;-56
2021/08/04 06:47:35;;;;;;;;;4.25;3.75;;;;;24.40;43.94;100907.00;5036041;28;50981;-56
2021/08/04 06:50:01;;;;;;;;;2.25;2.25;;;;;24.42;43.77;100904.81;5037108;28;50986;-55
2021/08/04 06:52:26;;;;;;;;;4.00;2.50;;;;;24.43;43.79;100906.50;5037236;28;51328;-56
2021/08/04 06:54:51;;;;;;;;;3.00;3.00;;;;;24.44;43.79;100905.41;5037476;28;51303;-56
2021/08/04 06:57:17;;;;;;;;;3.00;3.00;;;;;24.44;43.51;100897.13;5037335;28;51030;-56
2021/08/04 06:59:42;;;;;;;;;3.00;3.00;;;;;24.44;43.72;100897.94;5036922;28;51101;-56
2021/08/04 07:02:07;;;;;;;;;5.00;4.00;;;;;24.44;43.89;100903.50;5037196;28;51020;-55
2021/08/04 07:04:33;;;;;;;;;5.25;4.25;;;;;24.45;43.58;100910.69;5037272;28;50989;-55
2021/08/04 07:07:00;;;;;;;;;5.75;4.00;;;;;24.45;43.85;100905.16;5037416;28;51037;-54
2021/08/04 07:09:26;;;;;;;;;3.00;3.00;;;;;24.45;43.59;100907.94;5036619;28;51053;-54
2021/08/04 07:11:52;;;;;;;;;4.00;4.00;;;;;24.45;43.65;100912.63;5037132;28;50932;-55
2021/08/04 07:14:19;;;;;;;;;5.50;4.25;;;;;24.45;43.95;100919.00;5036658;28;51193;-56
2021/08/04 07:16:45;;;;;;;;;3.00;3.00;;;;;24.45;43.59;100912.63;5037085;28;51170;-56
2021/08/04 07:19:11;;;;;;;;;5.00;4.25;;;;;24.46;43.52;100912.38;5036420;28;52317;-56
2021/08/04 07:21:38;;;;;;;;;5.00;5.00;;;;;24.48;43.86;100912.97;5036564;28;51188;-56
2021/08/04 07:24:04;;;;;;;;;2.25;2.25;;;;;24.49;43.46;100916.59;5036502;28;51072;-56
2021/08/04 07:26:30;;;;;;;;;5.75;4.50;;;;;24.50;43.60;100909.97;5036572;28;51185;-55
2021/08/04 07:28:56;;;;;;;;;4.25;4.25;;;;;24.52;43.39;100906.97;5034710;28;52127;-56
2021/08/04 07:31:22;;;;;;;;;4.25;3.25;;;;;24.52;43.47;100906.97;5036736;28;50984;-54
2021/08/04 07:33:48;;;;;;;;;6.75;4.75;;;;;24.51;43.39;100910.81;5036335;28;50989;-56
2021/08/04 07:36:13;;;;;;;;;5.50;4.25;;;;;24.50;43.38;100907.22;5036870;28;51423;-56
2021/08/04 07:38:38;;;;;;;;;5.00;5.00;;;;;24.51;42.98;100900.59;5035942;28;50984;-56
2021/08/04 07:41:04;;;;;;;;;5.75;4.00;;;;;24.52;43.33;100896.72;5036426;28;51063;-56
2021/08/04 07:43:30;;;;;;;;;4.00;4.00;;;;;24.52;43.35;100898.66;5036189;28;50966;-56
2021/08/04 07:45:55;;;;;;;;;5.00;4.00;;;;;24.53;43.38;100905.88;5036636;28;51396;-56
2021/08/04 07:48:21;;;;;;;;;4.00;4.00;;;;;24.53;43.34;100903.94;5034947;28;51131;-56
2021/08/04 07:50:46;;;;;;;;;5.75;5.75;;;;;24.53;43.04;100903.94;5036001;28;50935;-56
2021/08/04 07:53:12;;;;;;;;;4.00;4.00;;;;;24.54;43.03;100911.16;5036552;28;50963;-55
2021/08/04 07:55:37;;;;;;;;;6.00;6.00;;;;;24.55;42.95;100910.06;5036550;28;51014;-56
2021/08/04 07:58:03;;;;;;;;;5.25;5.25;;;;;24.56;43.24;100911.75;5035723;28;53593;-56
2021/08/04 08:00:28;;;;;;;;;7.00;5.00;;;;;24.55;43.26;100912.00;5036312;28;50993;-56
2021/08/04 08:02:54;;;;;;;;;6.50;5.00;;;;;24.56;43.11;100908.13;5036234;28;51101;-56
2021/08/04 08:05:19;;;;;;;;;3.50;3.50;;;;;24.56;43.15;100908.97;5036185;28;51015;-55
2021/08/04 08:07:49;;;;;;;;;5.00;4.00;;;;;24.57;42.75;100912.56;5035672;28;51737;-55
2021/08/04 08:10:18;;;;;;;;;5.25;5.00;;;;;24.56;42.85;100908.97;5036130;28;51451;-55
2021/08/04 08:12:44;;;;;;;;;3.75;3.00;;;;;24.56;43.02;100903.44;5035635;28;51189;-55
2021/08/04 08:15:10;;;;;;;;;4.00;4.00;;;;;24.57;42.78;100905.09;5036042;28;51022;-55
2021/08/04 08:17:35;;;;;;;;;6.00;5.00;;;;;24.59;42.67;100907.63;5035469;28;51156;-56
2021/08/04 08:20:01;;;;;;;;;6.75;5.00;;;;;24.60;43.04;100907.41;5035683;28;50977;-55
2021/08/04 08:22:26;;;;;;;;;4.00;4.00;;;;;24.63;42.56;100903.28;5035983;28;50986;-55
2021/08/04 08:24:52;;;;;;;;;5.25;5.25;;;;;24.65;42.70;100907.47;5034298;28;51504;-55
2021/08/04 08:27:17;;;;;;;;;6.00;5.00;;;;;24.68;42.56;100904.22;5035006;28;51994;-54
2021/08/04 08:29:42;;;;;;;;;3.25;3.25;;;;;24.71;42.61;100895.41;5035594;28;51063;-55
2021/08/04 08:32:08;;;;;;;;;5.75;4.00;;;;;24.75;42.63;100898.53;5035901;28;51110;-56
2021/08/04 08:34:33;;;;;;;;;5.25;3.75;;;;;24.77;42.64;100894.41;5035815;28;51162;-55
2021/08/04 08:36:58;;;;;;;;;3.50;2.75;;;;;24.82;42.26;100901.16;5035493;28;51804;-55
2021/08/04 08:39:24;;;;;;;;;4.50;4.50;;;;;24.83;42.61;100897.28;5035407;28;51046;-56
2021/08/04 08:41:50;;;;;;;;;3.25;3.25;;;;;24.85;42.64;100901.47;5035610;28;50984;-55
2021/08/04 08:44:15;;;;;;;;;5.00;4.00;;;;;24.87;42.54;100909.53;5034559;28;51379;-55
2021/08/04 08:46:41;;;;;;;;;5.00;5.00;;;;;24.89;42.52;100908.19;5034993;28;52004;-54
2021/08/04 08:49:07;;;;;;;;;5.25;4.00;;;;;24.92;42.55;100906.88;5035087;28;51208;-55
2021/08/04 08:51:33;;;;;;;;;5.25;3.50;;;;;24.93;42.59;100909.38;5035520;28;51069;-56
2021/08/04 08:53:59;;;;;;;;;2.50;2.50;;;;;24.94;42.42;100899.13;5035397;28;51178;-55
2021/08/04 08:56:24;;;;;;;;;3.00;3.00;;;;;24.96;42.17;100894.19;5035187;28;51830;-54
2021/08/04 08:58:52;;;;;;;;;4.25;3.25;;;;;24.97;42.16;100899.47;5035144;28;51085;-54
2021/08/04 09:01:17;;;;;;;;;3.50;3.00;;;;;24.99;42.41;100896.44;5038094;28;51191;-56
2021/08/04 09:03:43;;;;;;;;;3.00;3.00;;;;;25.00;42.20;100895.34;5039069;28;51422;-55
2021/08/04 09:06:09;;;;;;;;;3.50;3.50;;;;;24.99;42.31;100891.72;5038588;28;51013;-55
2021/08/04 09:08:36;;;;;;;;;3.00;3.00;;;;;25.00;42.44;100898.13;5038870;28;51122;-54
2021/08/04 09:11:22;;;;;;;;;2.00;2.00;;;;;24.99;42.17;100896.44;5038713;28;51272;-55
2021/08/04 09:13:47;;;;;;;;;4.00;4.00;;;;;25.01;42.21;100900.69;5038604;28;51069;-56
2021/08/04 09:16:16;;;;;;;;;4.00;4.00;;;;;25.01;41.98;100899.78;5038805;28;52008;-56
2021/08/04 09:18:53;;;;;;;;;4.00;4.00;;;;;25.02;42.30;100901.53;5038204;28;51288;-56
2021/08/04 09:21:20;;;;;;;;;7.00;6.00;;;;;25.01;42.19;100897.91;5038642;28;51246;-56
2021/08/04 09:23:50;;;;;;;;;6.00;3.00;;;;;25.01;41.95;100891.47;5038781;28;51229;-56
2021/08/04 09:26:19;;;;;;;;;4.00;4.00;;;;;25.02;41.99;100901.53;5037965;28;51803;-56
2021/08/04 09:29:12;;;;;;;;;5.75;3.25;;;;;25.02;42.04;100893.22;5037846;28;51156;-56
2021/08/04 09:31:45;;;;;;;;;4.00;4.00;;;;;25.05;41.93;100892.69;5038401;28;51002;-56
2021/08/04 09:34:29;;;;;;;;;4.00;4.00;;;;;25.06;41.97;100888.00;5038511;28;51266;-56
2021/08/04 09:37:12;;;;;;;;;4.25;4.00;;;;;25.07;41.85;100887.75;5038017;28;52836;-54
2021/08/04 09:39:52;;;;;;;;;7.00;4.75;;;;;25.07;41.88;100875.81;5037759;28;50979;-56
2021/08/04 09:42:18;;;;;;;;;3.25;3.25;;;;;25.06;42.10;100883.28;5038152;28;51177;-55
2021/08/04 09:44:53;;;;;;;;;4.50;4.50;;;;;25.06;41.95;100880.53;5037789;28;50973;-55
2021/08/04 09:47:19;;;;;;;;;5.00;5.00;;;;;25.06;41.77;100877.75;5037857;28;50989;-56
2021/08/04 09:50:14;;;;;;;;;5.50;3.00;;;;;25.07;41.88;100879.44;5037669;28;50959;-54
2021/08/04 09:52:51;;;;;;;;;5.00;5.00;;;;;25.09;41.85;100862.53;5024448;28;51304;-56
2021/08/04 09:55:18;;;;;;;;;4.00;3.00;;;;;25.09;41.87;100866.16;5038123;28;51173;-56
2021/08/04 09:57:48;;;;;;;;;5.25;4.25;;;;;25.10;41.85;100867.81;5037132;28;52851;-56
2021/08/04 10:00:15;;;;;;;;;4.00;4.00;;;;;25.10;41.76;100865.06;5037965;28;51134;-55
2021/08/04 10:02:44;;;;;;;;;6.50;5.75;;;;;25.09;41.73;100863.38;5037427;28;51138;-55
2021/08/04 10:05:18;;;;;;;;;3.25;3.25;;;;;25.09;41.91;100868.09;5037798;28;51030;-55
2021/08/04 10:08:07;;;;;;;;;5.75;5.75;;;;;25.09;41.72;100863.38;5037429;28;52060;-54
2021/08/04 10:10:40;;;;;;;;;3.75;3.75;;;;;25.09;41.57;100863.38;5037309;28;50959;-56
2021/08/04 10:13:07;;;;;;;;;5.25;5.25;;;;;25.09;41.62;100866.16;5037426;28;51049;-56
2021/08/04 10:15:41;;;;;;;;;4.00;4.00;;;;;25.09;41.71;100860.59;5037909;28;50998;-57
2021/08/04 10:18:19;;;;;;;;;6.00;4.00;;;;;25.09;41.66;100849.53;5037549;28;51460;-56
2021/08/04 10:20:46;;;;;;;;;3.25;3.25;;;;;25.09;41.68;100855.06;5037369;28;51336;-56
2021/08/04 10:23:18;;;;;;;;;5.25;3.75;;;;;25.10;41.71;100844.81;5037203;28;51074;-57
2021/08/04 10:25:45;;;;;;;;;5.00;4.25;;;;;25.10;41.80;100847.59;5037323;28;50944;-57
2021/08/04 10:28:12;;;;;;;;;6.00;6.00;;;;;25.08;41.64;100842.31;5036492;28;51246;-55
2021/08/04 10:30:38;;;;;;;;;2.75;2.75;;;;;25.09;41.80;100852.28;5037194;28;51015;-56
2021/08/04 10:33:05;;;;;;;;;3.50;3.00;;;;;25.09;41.88;100845.91;5037004;28;51033;-55
2021/08/04 10:35:33;;;;;;;;;3.50;3.50;;;;;25.08;41.56;100844.22;5037136;28;50949;-56
2021/08/04 10:38:00;;;;;;;;;6.25;4.75;;;;;25.07;41.73;100840.63;5036533;28;51206;-57
2021/08/04 10:40:26;;;;;;;;;5.25;5.00;;;;;25.08;41.67;100841.47;5036840;28;51022;-55
2021/08/04 10:42:52;;;;;;;;;4.25;4.25;;;;;25.07;41.71;100843.41;5037119;28;51022;-57
2021/08/04 10:45:22;;;;;;;;;5.50;4.25;;;;;25.06;41.88;100838.94;5037074;28;51231;-56
2021/08/04 10:47:48;;;;;;;;;5.50;4.00;;;;;25.06;41.67;100841.72;5036277;28;50986;-57
2021/08/04 10:50:13;;;;;;;;;5.00;4.25;;;;;25.06;41.85;100841.72;5036398;28;50964;-56
2021/08/04 10:53:02;;;;;;;;;3.00;3.00;;;;;25.05;41.80;100840.03;5036726;28;51107;-56
2021/08/04 10:55:29;;;;;;;;;4.00;2.50;;;;;25.05;41.61;100845.59;5029095;28;51058;-55
2021/08/04 10:58:04;;;;;;;;;5.00;3.25;;;;;25.04;41.75;100841.13;5034670;28;53600;-55
2021/08/04 11:00:31;;;;;;;;;5.50;4.25;;;;;25.05;41.74;100848.34;5036807;28;51392;-55
2021/08/04 11:02:56;;;;;;;;;5.00;4.00;;;;;25.03;41.76;100845.84;5036458;28;51075;-56
2021/08/04 11:05:22;;;;;;;;;4.00;4.00;;;;;25.03;41.72;100850.56;5036758;28;51030;-54
2021/08/04 11:08:17;;;;;;;;;4.75;4.25;;;;;25.02;41.82;100858.03;5036296;28;51820;-54
2021/08/04 11:10:43;;;;;;;;;3.75;3.75;;;;;25.01;41.82;100853.56;5036382;28;51420;-55
2021/08/04 11:13:09;;;;;;;;;3.75;3.50;;;;;25.01;41.59;100849.91;5036426;28;51368;-56
2021/08/04 11:15:35;;;;;;;;;4.00;4.00;;;;;25.00;41.77;100853.78;5036687;28;50944;-57
2021/08/04 11:18:12;;;;;;;;;5.25;5.25;;;;;25.00;41.92;100845.47;5036062;28;51036;-56
2021/08/04 11:20:59;;;;;;;;;3.75;3.25;;;;;24.99;42.18;100847.38;5036337;28;51152;-56
2021/08/04 11:23:43;;;;;;;;;6.50;4.50;;;;;24.99;41.88;100850.16;5035182;28;51267;-55
2021/08/04 11:26:38;;;;;;;;;5.00;4.75;;;;;24.98;42.09;100850.41;5036600;28;51353;-56